createdAt,value
2023-03-06T00:00:59.464Z,11.75
2023-03-06T00:03:28.003Z,10.32
2023-03-06T00:05:58.708Z,11.00
2023-03-06T00:08:28.485Z,12.05
2023-03-06T00:10:57.232Z,14.73
2023-03-06T00:13:26.618Z,13.85
2023-03-06T00:15:54.476Z,13.60
2023-03-06T00:18:22.271Z,13.98
2023-03-06T00:20:50.026Z,13.93
2023-03-06T00:23:19.651Z,13.75
2023-03-06T00:25:47.434Z,12.60
2023-03-06T00:28:17.285Z,13.88
2023-03-06T00:30:48.053Z,11.75
2023-03-06T00:33:15.859Z,12.88
2023-03-06T00:35:43.886Z,12.77
2023-03-06T00:38:13.447Z,12.63
2023-03-06T00:40:45.704Z,11.90
2023-03-06T00:43:14.730Z,14.32
2023-03-06T00:45:43.930Z,12.30
2023-03-06T00:48:14.969Z,13.05
2023-03-06T00:50:42.699Z,13.57
2023-03-06T00:53:14.665Z,11.55
2023-03-06T00:55:46.888Z,12.00
2023-03-06T00:58:14.754Z,13.05
2023-03-06T01:00:42.751Z,13.10
2023-03-06T01:03:11.909Z,12.95
2023-03-06T01:05:40.478Z,13.45
2023-03-06T01:08:08.836Z,12.52
2023-03-06T01:10:39.648Z,13.48
2023-03-06T01:13:09.005Z,13.48
2023-03-06T01:15:36.801Z,12.65
2023-03-06T01:18:05.149Z,12.35
2023-03-06T01:20:33.149Z,13.25
2023-03-06T01:23:01.094Z,13.23
2023-03-06T01:25:28.990Z,13.27
2023-03-06T01:27:56.799Z,12.02
2023-03-06T01:30:26.006Z,12.05
2023-03-06T01:32:53.814Z,11.73
2023-03-06T01:35:21.859Z,12.05
2023-03-06T01:37:49.800Z,12.65
2023-03-06T01:40:17.534Z,12.90
2023-03-06T01:42:46.783Z,13.07
2023-03-06T01:45:52.081Z,12.32
2023-03-06T01:48:25.027Z,12.48
2023-03-06T01:50:55.257Z,12.70
2023-03-06T01:53:23.117Z,11.77
2023-03-06T01:55:51.186Z,11.70
2023-03-06T01:58:20.539Z,12.55
2023-03-06T02:00:48.576Z,12.85
2023-03-06T02:03:24.384Z,11.60
2023-03-06T02:05:52.387Z,11.23
2023-03-06T02:08:22.719Z,11.98
2023-03-06T02:10:59.773Z,11.10
2023-03-06T02:13:27.864Z,10.32
2023-03-06T02:15:55.906Z,11.50
2023-03-06T02:18:25.201Z,11.23
2023-03-06T02:20:55.437Z,10.57
2023-03-06T02:23:31.126Z,10.98
2023-03-06T02:26:01.445Z,11.95
2023-03-06T02:28:29.515Z,11.20
2023-03-06T02:30:57.735Z,11.65
2023-03-06T02:33:28.052Z,11.10
2023-03-06T02:35:58.447Z,12.10
2023-03-06T02:38:29.685Z,11.40
2023-03-06T02:40:58.141Z,12.77
2023-03-06T02:43:30.647Z,11.38
2023-03-06T02:45:58.619Z,11.05
2023-03-06T02:48:26.436Z,12.68
2023-03-06T02:50:54.183Z,11.00
2023-03-06T02:53:22.673Z,11.50
2023-03-06T02:55:50.864Z,10.93
2023-03-06T02:58:19.709Z,11.00
2023-03-06T03:00:49.711Z,10.82
2023-03-06T03:03:18.216Z,10.93
2023-03-06T03:05:46.123Z,10.88
2023-03-06T03:08:14.572Z,11.55
2023-03-06T03:10:42.382Z,12.05
2023-03-06T03:13:10.103Z,10.90
2023-03-06T03:15:38.003Z,10.30
2023-03-06T03:18:07.272Z,10.73
2023-03-06T03:20:35.074Z,10.43
2023-03-06T03:23:02.901Z,9.98
2023-03-06T03:25:30.733Z,10.10
2023-03-06T03:27:58.407Z,10.57
2023-03-06T03:30:26.279Z,9.40
2023-03-06T03:32:54.124Z,10.35
2023-03-06T03:35:23.295Z,9.85
2023-03-06T03:37:52.685Z,9.30
2023-03-06T03:40:20.469Z,9.38
2023-03-06T03:42:48.149Z,10.02
2023-03-06T03:45:16.250Z,9.20
2023-03-06T03:47:44.084Z,10.05
2023-03-06T03:50:13.042Z,9.85
2023-03-06T03:52:42.151Z,9.75
2023-03-06T03:55:10.092Z,9.90
2023-03-06T03:57:39.210Z,9.95
2023-03-06T04:00:08.540Z,9.57
2023-03-06T04:02:36.314Z,9.75
2023-03-06T04:05:05.057Z,10.20
2023-03-06T04:07:32.886Z,9.38
2023-03-06T04:10:02.121Z,9.90
2023-03-06T04:12:29.828Z,9.73
2023-03-06T04:14:57.553Z,9.65
2023-03-06T04:17:25.729Z,8.68
2023-03-06T04:19:53.492Z,8.88
2023-03-06T04:22:21.269Z,9.40
2023-03-06T04:24:49.847Z,9.05
2023-03-06T04:27:19.382Z,9.25
2023-03-06T04:29:47.147Z,9.70
2023-03-06T04:32:14.917Z,10.07
2023-03-06T04:34:42.808Z,9.85
2023-03-06T04:37:18.953Z,9.82
2023-03-06T04:39:46.675Z,9.45
2023-03-06T04:42:14.647Z,8.88
2023-03-06T04:44:43.901Z,9.00
2023-03-06T04:47:12.286Z,9.00
2023-03-06T04:49:40.112Z,10.00
2023-03-06T04:52:08.601Z,9.38
2023-03-06T04:54:36.570Z,10.02
2023-03-06T04:57:04.611Z,8.35
2023-03-06T04:59:32.332Z,8.70
2023-03-06T05:02:01.502Z,9.43
2023-03-06T05:04:29.282Z,8.35
2023-03-06T05:06:57.003Z,9.05
2023-03-06T05:09:24.735Z,8.82
2023-03-06T05:11:52.467Z,8.52
2023-03-06T05:14:20.411Z,8.65
2023-03-06T05:16:48.242Z,7.78
2023-03-06T05:19:17.511Z,8.32
2023-03-06T05:21:45.216Z,9.00
2023-03-06T05:24:13.179Z,7.93
2023-03-06T05:26:41.114Z,8.13
2023-03-06T05:29:09.027Z,9.18
2023-03-06T05:31:36.823Z,8.80
2023-03-06T05:34:04.612Z,8.68
2023-03-06T05:36:34.393Z,9.52
2023-03-06T05:39:02.166Z,8.55
2023-03-06T05:41:30.085Z,9.13
2023-03-06T05:43:58.034Z,8.30
2023-03-06T05:46:26.098Z,8.70
2023-03-06T05:48:56.226Z,8.90
2023-03-06T05:51:24.498Z,8.77
2023-03-06T05:53:54.016Z,8.25
2023-03-06T05:56:22.238Z,8.77
2023-03-06T05:58:50.977Z,7.38
2023-03-06T06:01:21.540Z,7.70
2023-03-06T06:03:49.677Z,8.27
2023-03-06T06:06:17.758Z,8.18
2023-03-06T06:08:46.501Z,7.85
2023-03-06T06:11:18.652Z,8.48
2023-03-06T06:13:46.477Z,8.07
2023-03-06T06:16:16.777Z,8.75
2023-03-06T06:18:45.072Z,9.05
2023-03-06T06:21:15.142Z,8.30
2023-03-06T06:23:43.743Z,8.88
2023-03-06T06:26:11.901Z,8.20
2023-03-06T06:28:41.595Z,8.25
2023-03-06T06:31:10.909Z,8.65
2023-03-06T06:33:38.854Z,8.93
2023-03-06T06:36:08.313Z,8.55
2023-03-06T06:38:36.232Z,8.77
2023-03-06T06:41:35.570Z,8.80
2023-03-06T06:43:56.314Z,7.85
2023-03-06T06:47:14.364Z,7.95
2023-03-06T06:49:14.331Z,9.60
2023-03-06T06:51:42.793Z,8.18
2023-03-06T06:54:12.484Z,9.25
2023-03-06T06:56:40.484Z,9.05
2023-03-06T06:59:16.394Z,10.23
2023-03-06T07:01:45.220Z,7.97
2023-03-06T07:04:14.164Z,7.88
2023-03-06T07:06:42.150Z,10.65
2023-03-06T07:09:10.231Z,9.27
2023-03-06T07:11:40.343Z,8.70
2023-03-06T07:14:09.872Z,9.15
2023-03-06T07:16:37.645Z,7.95
2023-03-06T07:19:05.492Z,9.32
2023-03-06T07:21:33.449Z,14.20
2023-03-06T07:24:01.826Z,8.57
2023-03-06T07:26:32.135Z,9.07
2023-03-06T07:29:01.956Z,8.63
2023-03-06T07:31:31.672Z,9.40
2023-03-06T07:33:59.776Z,8.73
2023-03-06T07:36:27.567Z,8.98
2023-03-06T07:38:55.630Z,7.90
2023-03-06T07:41:24.637Z,8.55
2023-03-06T07:43:52.393Z,8.85
2023-03-06T07:46:20.479Z,9.27
2023-03-06T07:48:49.740Z,8.55
2023-03-06T07:51:19.457Z,8.48
2023-03-06T07:53:48.446Z,8.52
2023-03-06T07:56:16.955Z,8.07
2023-03-06T07:58:48.116Z,8.30
2023-03-06T08:01:17.553Z,8.10
2023-03-06T08:03:45.978Z,8.50
2023-03-06T08:06:18.235Z,8.70
2023-03-06T08:08:48.430Z,7.90
2023-03-06T08:11:19.113Z,8.15
2023-03-06T08:13:50.989Z,8.93
2023-03-06T08:16:21.466Z,8.13
2023-03-06T08:18:49.732Z,8.50
2023-03-06T08:21:21.393Z,9.68
2023-03-06T08:23:49.737Z,8.05
2023-03-06T08:26:19.700Z,7.60
2023-03-06T08:28:47.890Z,7.57
2023-03-06T08:31:25.318Z,8.75
2023-03-06T08:33:53.897Z,7.03
2023-03-06T08:36:24.017Z,6.80
2023-03-06T08:38:59.066Z,7.28
2023-03-06T08:41:29.267Z,7.32
2023-03-06T08:43:57.267Z,7.85
2023-03-06T08:46:26.953Z,6.28
2023-03-06T08:48:55.714Z,5.93
2023-03-06T08:51:26.772Z,5.80
2023-03-06T08:53:54.756Z,5.70
2023-03-06T08:56:24.741Z,6.63
2023-03-06T08:58:54.137Z,6.13
2023-03-06T09:01:24.362Z,6.07
2023-03-06T09:03:55.600Z,7.15
2023-03-06T09:06:25.704Z,6.50
2023-03-06T09:08:54.260Z,5.47
2023-03-06T09:11:23.762Z,6.75
2023-03-06T09:13:51.745Z,5.78
2023-03-06T09:16:19.687Z,6.05
2023-03-06T09:18:49.781Z,5.70
2023-03-06T09:21:17.978Z,5.80
2023-03-06T09:23:47.474Z,5.80
2023-03-06T09:26:15.427Z,6.10
2023-03-06T09:28:43.185Z,5.80
2023-03-06T09:31:12.293Z,6.60
2023-03-06T09:33:40.633Z,5.95
2023-03-06T09:36:11.502Z,6.15
2023-03-06T09:38:39.344Z,6.15
2023-03-06T09:41:16.368Z,6.43
2023-03-06T09:43:47.015Z,6.50
2023-03-06T09:46:20.796Z,7.20
2023-03-06T09:49:00.646Z,6.78
2023-03-06T09:51:35.434Z,6.47
2023-03-06T09:54:09.665Z,6.05
2023-03-06T09:56:38.963Z,5.93
2023-03-06T09:59:13.400Z,5.78
2023-03-06T10:01:44.684Z,6.20
2023-03-06T10:04:31.180Z,7.13
2023-03-06T10:07:03.345Z,6.68
2023-03-06T10:09:41.342Z,6.35
2023-03-06T10:12:23.005Z,4.90
2023-03-06T10:20:11.928Z,5.85
2023-03-06T10:22:52.609Z,5.15
2023-03-06T10:25:31.602Z,6.40
2023-03-06T10:28:06.650Z,5.30
2023-03-06T10:30:42.431Z,5.90
2023-03-06T10:33:22.748Z,5.82
2023-03-06T10:35:54.907Z,6.43
2023-03-06T10:38:25.162Z,6.38
2023-03-06T10:41:04.830Z,5.82
2023-03-06T10:43:36.371Z,6.70
2023-03-06T10:46:05.369Z,6.15
2023-03-06T10:48:36.225Z,5.50
2023-03-06T10:51:19.130Z,5.80
2023-03-06T10:53:53.242Z,7.10
2023-03-06T10:56:33.646Z,6.03
2023-03-06T10:59:12.818Z,6.38
2023-03-06T11:01:42.329Z,6.38
2023-03-06T11:04:22.989Z,7.10
2023-03-06T11:07:06.486Z,5.80
2023-03-06T11:09:35.235Z,7.38
2023-03-06T11:12:27.125Z,5.30
2023-03-06T11:15:18.851Z,6.45
2023-03-06T11:17:54.171Z,6.22
2023-03-06T11:20:25.051Z,5.45
2023-03-06T11:22:57.249Z,5.90
2023-03-06T11:25:31.230Z,5.70
2023-03-06T11:28:03.437Z,6.25
2023-03-06T11:30:40.707Z,6.70
2023-03-06T11:33:42.532Z,6.60
2023-03-06T11:36:16.628Z,6.10
2023-03-06T11:38:50.192Z,7.05
2023-03-06T11:41:27.768Z,5.90
2023-03-06T11:44:02.506Z,5.45
2023-03-06T11:46:38.931Z,6.80
2023-03-06T11:49:18.066Z,6.18
2023-03-06T11:51:52.072Z,6.05
2023-03-06T11:54:20.287Z,5.28
2023-03-06T11:56:57.244Z,6.65
2023-03-06T11:59:50.822Z,12.93
2023-03-06T12:02:32.655Z,7.82
2023-03-06T12:05:14.258Z,6.72
2023-03-06T12:07:50.378Z,6.93
2023-03-06T12:10:23.685Z,5.88
2023-03-06T12:16:24.399Z,6.82
2023-03-06T12:19:03.313Z,6.07
2023-03-06T12:21:39.611Z,6.32
2023-03-06T12:24:25.852Z,5.90
2023-03-06T12:27:07.587Z,5.40
2023-03-06T12:29:50.413Z,5.20
2023-03-06T12:32:30.086Z,6.15
2023-03-06T12:35:11.066Z,6.00
2023-03-06T12:37:50.230Z,5.82
2023-03-06T12:40:36.782Z,5.18
2023-03-06T12:43:49.967Z,6.45
2023-03-06T12:46:20.906Z,5.70
2023-03-06T12:49:03.077Z,6.57
2023-03-06T12:51:33.426Z,6.35
2023-03-06T12:54:03.310Z,6.35
2023-03-06T12:56:33.429Z,5.40
2023-03-06T12:59:02.655Z,5.25
2023-03-06T13:01:43.509Z,6.15
2023-03-06T13:04:41.303Z,5.75
2023-03-06T13:07:26.338Z,6.07
2023-03-06T13:10:06.871Z,5.78
2023-03-06T13:12:49.953Z,5.40
2023-03-06T13:15:33.416Z,5.80
2023-03-06T13:18:01.513Z,6.05
2023-03-06T13:20:39.500Z,6.22
2023-03-06T13:23:44.586Z,6.00
2023-03-06T13:26:55.011Z,5.18
2023-03-06T13:30:02.539Z,6.25
2023-03-06T13:32:33.988Z,5.93
2023-03-06T13:35:02.002Z,5.68
2023-03-06T13:37:51.463Z,5.80
2023-03-06T13:40:38.380Z,5.93
2023-03-06T13:43:22.407Z,5.53
2023-03-06T13:45:52.137Z,5.47
2023-03-06T13:48:44.362Z,5.68
2023-03-06T13:51:25.021Z,6.20
2023-03-06T13:54:15.879Z,4.90
2023-03-06T13:57:17.468Z,5.35
2023-03-06T14:00:15.599Z,5.28
2023-03-06T14:03:10.193Z,5.40
2023-03-06T14:05:44.310Z,5.10
2023-03-06T14:08:16.540Z,5.50
2023-03-06T14:10:46.500Z,5.00
2023-03-06T14:13:21.248Z,4.85
2023-03-06T14:15:52.548Z,5.60
2023-03-06T14:18:24.284Z,4.82
2023-03-06T14:20:57.745Z,5.75
2023-03-06T14:23:28.748Z,5.60
2023-03-06T14:26:03.718Z,5.70
2023-03-06T14:28:33.146Z,5.88
2023-03-06T14:31:04.494Z,6.13
2023-03-06T14:33:37.944Z,5.43
2023-03-06T14:36:10.871Z,5.38
2023-03-06T14:38:44.627Z,5.57
2023-03-06T14:41:14.110Z,5.43
2023-03-06T14:43:42.079Z,5.35
2023-03-06T14:46:20.308Z,5.40
2023-03-06T14:48:49.531Z,5.43
2023-03-06T14:51:20.299Z,5.70
2023-03-06T14:53:49.910Z,6.07
2023-03-06T14:56:20.625Z,6.13
2023-03-06T14:58:55.467Z,6.78
2023-03-06T15:01:31.202Z,5.07
2023-03-06T15:04:01.105Z,6.78
2023-03-06T15:06:34.437Z,6.07
2023-03-06T15:09:07.855Z,5.65
2023-03-06T15:11:57.340Z,5.25
2023-03-06T15:14:32.287Z,5.55
2023-03-06T15:17:33.279Z,6.00
2023-03-06T15:20:02.501Z,5.90
2023-03-06T15:22:37.544Z,4.65
2023-03-06T15:25:20.718Z,5.95
2023-03-06T15:27:50.884Z,5.60
2023-03-06T15:30:28.209Z,5.30
2023-03-06T15:33:23.932Z,7.50
2023-03-06T15:35:57.830Z,7.78
2023-03-06T15:38:32.900Z,6.15
2023-03-06T15:41:03.258Z,5.07
2023-03-06T15:43:36.250Z,5.93
2023-03-06T15:46:06.833Z,6.18
2023-03-06T15:48:35.365Z,6.80
2023-03-06T15:51:05.495Z,7.07
2023-03-06T15:53:33.381Z,7.50
2023-03-06T15:56:01.290Z,6.30
2023-03-06T15:58:31.113Z,6.55
2023-03-06T16:00:59.293Z,7.00
2023-03-06T16:03:27.112Z,5.20
2023-03-06T16:05:59.272Z,5.20
2023-03-06T16:08:28.890Z,6.25
2023-03-06T16:10:56.872Z,6.60
2023-03-06T16:13:28.473Z,5.88
2023-03-06T16:15:57.034Z,5.45
2023-03-06T16:18:25.055Z,6.40
2023-03-06T16:20:52.936Z,5.70
2023-03-06T16:23:20.789Z,7.53
2023-03-06T16:25:50.706Z,5.28
2023-03-06T16:28:18.950Z,7.00
2023-03-06T16:30:47.001Z,6.97
2023-03-06T16:33:15.590Z,7.25
2023-03-06T16:35:46.656Z,7.85
2023-03-06T16:38:15.713Z,6.55
2023-03-06T16:40:44.057Z,7.25
2023-03-06T16:43:16.090Z,6.97
2023-03-06T16:45:44.169Z,6.65
2023-03-06T16:48:16.990Z,7.15
2023-03-06T16:50:45.702Z,6.80
2023-03-06T16:53:13.889Z,7.43
2023-03-06T16:55:42.242Z,7.28
2023-03-06T16:58:10.009Z,7.93
2023-03-06T17:00:39.158Z,7.80
2023-03-06T17:03:07.773Z,7.05
2023-03-06T17:05:36.811Z,7.95
2023-03-06T17:08:05.713Z,7.63
2023-03-06T17:10:33.561Z,6.97
2023-03-06T17:13:01.380Z,7.80
2023-03-06T17:15:56.214Z,8.45
2023-03-06T17:18:25.424Z,8.15
2023-03-06T17:20:54.828Z,7.90
2023-03-06T17:23:25.973Z,7.82
2023-03-06T17:25:54.193Z,7.57
2023-03-06T17:28:22.410Z,8.90
2023-03-06T17:30:51.465Z,7.97
2023-03-06T17:33:19.308Z,8.90
2023-03-06T17:35:47.187Z,7.88
2023-03-06T17:38:15.004Z,8.70
2023-03-06T17:40:42.815Z,8.50
2023-03-06T17:43:10.553Z,7.95
2023-03-06T17:45:38.272Z,9.48
2023-03-06T17:48:07.962Z,8.80
2023-03-06T17:50:35.773Z,8.98
2023-03-06T17:53:03.575Z,8.45
2023-03-06T17:55:31.335Z,8.75
2023-03-06T17:57:59.241Z,9.35
2023-03-06T18:00:27.266Z,8.68
2023-03-06T18:02:55.024Z,10.07
2023-03-06T18:05:24.185Z,8.75
2023-03-06T18:07:51.997Z,9.27
2023-03-06T18:10:20.322Z,8.82
2023-03-06T18:12:48.110Z,8.23
2023-03-06T18:15:15.885Z,9.57
2023-03-06T18:17:43.670Z,8.90
2023-03-06T18:20:12.672Z,10.10
2023-03-06T18:22:41.907Z,8.23
2023-03-06T18:25:11.293Z,8.63
2023-03-06T18:27:39.011Z,8.88
2023-03-06T18:30:07.799Z,9.35
2023-03-06T18:32:36.580Z,8.60
2023-03-06T18:35:04.733Z,8.57
2023-03-06T18:37:32.581Z,8.82
2023-03-06T18:40:01.969Z,8.25
2023-03-06T18:42:30.044Z,9.13
2023-03-06T18:44:57.793Z,8.90
2023-03-06T18:47:25.581Z,8.80
2023-03-06T18:49:53.385Z,8.18
2023-03-06T18:52:21.182Z,7.95
2023-03-06T18:54:50.495Z,9.30
2023-03-06T18:57:19.661Z,9.20
2023-03-06T18:59:48.240Z,9.05
2023-03-06T19:02:21.433Z,10.10
2023-03-06T19:04:49.861Z,9.57
2023-03-06T19:07:18.096Z,8.80
2023-03-06T19:09:47.020Z,9.65
2023-03-06T19:12:15.496Z,10.35
2023-03-06T19:14:44.938Z,9.25
2023-03-06T19:17:13.104Z,8.32
2023-03-06T19:19:40.909Z,8.48
2023-03-06T19:22:08.725Z,8.65
2023-03-06T19:24:36.450Z,7.65
2023-03-06T19:27:04.266Z,8.88
2023-03-06T19:29:32.514Z,10.40
2023-03-06T19:32:03.086Z,10.50
2023-03-06T19:34:30.935Z,8.38
2023-03-06T19:36:58.680Z,10.02
2023-03-06T19:39:26.859Z,8.48
2023-03-06T19:41:54.844Z,9.65
2023-03-06T19:44:23.211Z,8.95
2023-03-06T19:46:50.997Z,9.95
2023-03-06T19:49:22.214Z,8.57
2023-03-06T19:51:50.009Z,9.40
2023-03-06T19:54:23.189Z,9.52
2023-03-06T19:56:51.036Z,9.65
2023-03-06T19:59:18.944Z,8.52
2023-03-06T20:01:47.066Z,9.05
2023-03-06T20:04:15.008Z,9.93
2023-03-06T20:06:45.488Z,8.80
2023-03-06T20:09:13.942Z,8.80
2023-03-06T20:11:41.759Z,8.80
2023-03-06T20:14:11.578Z,9.93
2023-03-06T20:16:39.818Z,9.80
2023-03-06T20:19:08.688Z,8.00
2023-03-06T20:21:37.859Z,9.80
2023-03-06T20:24:09.221Z,8.23
2023-03-06T20:26:38.545Z,8.45
2023-03-06T20:29:06.346Z,8.63
2023-03-06T20:31:34.326Z,8.82
2023-03-06T20:34:02.277Z,9.10
2023-03-06T20:36:32.444Z,8.77
2023-03-06T20:39:02.153Z,8.63
2023-03-06T20:41:32.980Z,7.60
2023-03-06T20:44:02.491Z,9.25
2023-03-06T20:46:30.933Z,9.05
2023-03-06T20:48:59.568Z,8.93
2023-03-06T20:51:28.957Z,8.90
2023-03-06T20:53:57.317Z,9.70
2023-03-06T20:56:26.788Z,8.35
2023-03-06T20:58:56.881Z,8.40
2023-03-06T21:01:29.424Z,7.72
2023-03-06T21:03:58.940Z,9.93
2023-03-06T21:06:28.085Z,7.13
2023-03-06T21:08:56.058Z,9.27
2023-03-06T21:11:24.022Z,6.55
2023-03-06T21:13:52.960Z,8.05
2023-03-06T21:16:24.091Z,8.15
2023-03-06T21:18:52.251Z,7.65
2023-03-06T21:21:22.951Z,7.55
2023-03-06T21:23:51.601Z,9.10
2023-03-06T21:26:21.965Z,8.90
2023-03-06T21:28:50.342Z,8.93
2023-03-06T21:31:20.121Z,9.57
2023-03-06T21:33:51.200Z,8.88
2023-03-06T21:36:21.424Z,9.80
2023-03-06T21:38:52.167Z,9.32
2023-03-06T21:41:24.143Z,9.15
2023-03-06T21:43:55.271Z,10.27
2023-03-06T21:46:23.532Z,11.23
2023-03-06T21:48:52.664Z,10.77
2023-03-06T21:51:23.521Z,9.10
2023-03-06T21:53:52.462Z,10.80
2023-03-06T21:56:22.650Z,10.13
2023-03-06T21:58:50.700Z,9.50
2023-03-06T22:01:20.962Z,10.70
2023-03-06T22:03:48.872Z,9.15
2023-03-06T22:06:20.950Z,8.20
2023-03-06T22:08:49.961Z,9.77
2023-03-06T22:11:19.640Z,9.10
2023-03-06T22:13:49.001Z,11.68
2023-03-06T22:16:18.378Z,9.35
2023-03-06T22:18:47.318Z,9.38
2023-03-06T22:21:18.197Z,9.93
2023-03-06T22:23:50.320Z,9.73
2023-03-06T22:26:18.516Z,11.30
2023-03-06T22:28:46.407Z,9.85
2023-03-06T22:31:15.967Z,9.85
2023-03-06T22:33:44.249Z,9.52
2023-03-06T22:36:13.820Z,10.43
2023-03-06T22:38:43.360Z,9.85
2023-03-06T22:41:14.169Z,9.65
2023-03-06T22:43:42.649Z,9.52
2023-03-06T22:46:13.303Z,9.80
2023-03-06T22:48:41.572Z,10.30
2023-03-06T22:51:12.854Z,9.60
2023-03-06T22:53:40.960Z,10.30
2023-03-06T22:56:13.350Z,10.27
2023-03-06T22:58:41.426Z,10.88
2023-03-06T23:01:11.185Z,9.40
2023-03-06T23:03:46.361Z,9.98
2023-03-06T23:06:16.837Z,10.90
2023-03-06T23:08:46.406Z,9.32
2023-03-06T23:11:19.780Z,9.45
2023-03-06T23:13:47.997Z,7.63
2023-03-06T23:16:15.993Z,9.43
2023-03-06T23:18:44.361Z,9.07
2023-03-06T23:21:15.222Z,9.88
2023-03-06T23:23:44.260Z,9.50
2023-03-06T23:26:15.099Z,10.13
2023-03-06T23:28:44.267Z,9.43
2023-03-06T23:31:13.953Z,8.93
2023-03-06T23:33:43.458Z,9.75
2023-03-06T23:36:13.904Z,9.77
2023-03-06T23:38:42.142Z,9.13
2023-03-06T23:41:12.703Z,8.75
2023-03-06T23:43:41.122Z,9.23
2023-03-06T23:46:10.871Z,10.02
2023-03-06T23:48:57.890Z,9.60
2023-03-06T23:51:25.889Z,9.27
2023-03-06T23:53:59.085Z,9.60
2023-03-06T23:56:28.602Z,9.23
2023-03-06T23:58:56.376Z,8.63
